Time;durP1;ratioP1;P1;durP2;ratioP2;P2;SDS_P1;SDS_P2;PMS_P1;PMS_P2;Temp;Humidity;BMP_temperature;BMP_pressure;BME280_temperature;BME280_humidity;BME280_pressure;Samples;Min_cycle;Max_cycle;Signal;HPM_P1;HPM_P2
2022/10/21 00:00:17;;;;;;;18.60;12.07;;;;;;;8.18;100.00;100635.91;4982593;28;20085;-78
2022/10/21 00:02:42;;;;;;;20.85;10.98;;;;;;;8.18;100.00;100646.56;4982283;28;20046;-77
2022/10/21 00:05:08;;;;;;;19.30;12.57;;;;;;;8.15;100.00;100638.88;4981744;28;20054;-79
2022/10/21 00:07:34;;;;;;;20.13;11.85;;;;;;;8.13;100.00;100644.34;4962262;28;20038;-78
2022/10/21 00:09:59;;;;;;;18.98;12.40;;;;;;;8.12;100.00;100641.81;4980496;28;20109;-76
2022/10/21 00:12:27;;;;;;;19.67;11.60;;;;;;;8.13;100.00;100638.19;4982853;28;20117;-76
2022/10/21 00:14:52;;;;;;;22.65;12.38;;;;;;;8.06;100.00;100631.78;4961658;28;20543;-77
2022/10/21 00:17:18;;;;;;;19.77;13.13;;;;;;;7.97;100.00;100607.75;4980951;28;20097;-77
2022/10/21 00:19:43;;;;;;;24.03;12.50;;;;;;;8.04;100.00;100624.78;4975680;28;20045;-78
2022/10/21 00:22:09;;;;;;;21.87;14.57;;;;;;;8.03;100.00;100627.63;4978245;28;20030;-77
2022/10/21 00:24:34;;;;;;;24.10;12.80;;;;;;;8.04;100.00;100624.78;4960438;28;20462;-76
2022/10/21 00:27:01;;;;;;;24.90;12.17;;;;;;;8.04;100.00;100622.13;4975983;28;20089;-76
2022/10/21 00:29:27;;;;;;;21.42;12.13;;;;;;;8.03;100.00;100612.50;4976958;28;20031;-79
2022/10/21 00:31:53;;;;;;;19.17;11.75;;;;;;;8.00;100.00;100602.13;4975585;28;20049;-77
2022/10/21 00:34:19;;;;;;;17.65;11.90;;;;;;;7.96;100.00;100606.09;4960950;28;20466;-77
2022/10/21 00:36:44;;;;;;;28.52;13.60;;;;;;;7.95;100.00;100593.78;4958802;28;20479;-76
2022/10/21 00:39:10;;;;;;;25.83;12.80;;;;;;;7.90;100.00;100596.03;4960331;28;20042;-76
2022/10/21 00:41:35;;;;;;;22.73;12.13;;;;;;;8.00;100.00;100611.94;4963142;28;20038;-78
2022/10/21 00:44:04;;;;;;;25.93;12.27;;;;;;;7.98;100.00;100593.50;4946176;28;20444;-76
2022/10/21 00:46:46;;;;;;;15.93;11.15;;;;;;;7.95;100.00;100591.13;4959301;28;20030;-75
2022/10/21 00:49:30;;;;;;;20.48;12.85;;;;;;;7.97;100.00;100586.50;4975458;28;20026;-78
2022/10/21 00:52:00;;;;;;;20.90;12.35;;;;;;;7.95;100.00;100585.81;4973656;28;20546;-77
2022/10/21 00:54:29;;;;;;;17.73;11.80;;;;;;;7.91;100.00;100578.28;4975901;28;20074;-77
2022/10/21 00:56:56;;;;;;;20.48;13.13;;;;;;;7.91;100.00;100571.13;4975215;28;20161;-75
2022/10/21 00:59:23;;;;;;;20.48;11.65;;;;;;;7.91;100.00;100560.50;4959645;28;20018;-78
2022/10/21 01:01:49;;;;;;;19.10;12.07;;;;;;;7.88;100.00;100558.13;4958183;28;20534;-76
2022/10/21 01:04:14;;;;;;;23.80;12.33;;;;;;;7.93;100.00;100558.53;4936502;28;20098;-76
2022/10/21 01:06:40;;;;;;;22.57;12.93;;;;;;;7.90;100.00;100550.03;4978977;28;20492;-76
2022/10/21 01:09:06;;;;;;;22.02;12.52;;;;;;;7.98;100.00;100550.97;4960485;28;20041;-80
2022/10/21 01:11:47;;;;;;;19.02;11.85;;;;;;;7.94;100.00;100543.44;4944108;28;20118;-76
2022/10/21 01:14:21;;;;;;;21.02;11.68;;;;;;;7.96;100.00;100552.94;4948643;28;20499;-78
2022/10/21 01:17:11;;;;;;;16.63;11.30;;;;;;;7.95;100.00;100535.28;4961305;28;20050;-78
2022/10/21 01:20:04;;;;;;;17.35;12.25;;;;;;;7.98;100.00;100540.31;4972047;28;20035;-79
2022/10/21 01:22:51;;;;;;;17.73;11.68;;;;;;;7.98;100.00;100535.00;4950949;28;20047;-76
2022/10/21 01:25:36;;;;;;;20.70;12.13;;;;;;;7.87;100.00;100529.91;4942838;28;20571;-78
2022/10/21 01:28:20;;;;;;;20.60;11.82;;;;;;;7.80;100.00;100515.53;4940799;28;20030;-77
2022/10/21 01:30:48;;;;;;;27.13;12.40;;;;;;;7.80;100.00;100520.84;4976191;28;20223;-77
2022/10/21 01:33:38;;;;;;;20.08;12.48;;;;;;;7.84;100.00;100516.88;4945932;28;20392;-78
2022/10/21 01:36:18;;;;;;;21.98;13.18;;;;;;;7.82;100.00;100510.91;4975272;28;20026;-77
2022/10/21 01:39:07;;;;;;;22.50;13.10;;;;;;;7.81;100.00;100506.56;4959565;28;20066;-78
2022/10/21 01:41:39;;;;;;;22.52;12.70;;;;;;;7.84;100.00;100511.56;4974077;28;20050;-79
2022/10/21 01:44:10;;;;;;;21.45;13.27;;;;;;;7.80;100.00;100497.78;4975980;28;20495;-77
2022/10/21 01:46:47;;;;;;;21.17;12.52;;;;;;;7.84;100.00;100503.59;4944141;28;20257;-76
2022/10/21 01:49:39;;;;;;;23.52;13.55;;;;;;;7.77;100.00;100495.41;4959419;28;20395;-77
2022/10/21 01:52:06;;;;;;;25.90;12.77;;;;;;;7.82;100.00;100487.00;4973301;28;20123;-76
2022/10/21 01:54:36;;;;;;;22.80;13.40;;;;;;;7.80;100.00;100495.09;4940560;28;20038;-77
2022/10/21 01:57:05;;;;;;;24.45;13.80;;;;;;;7.75;100.00;100493.88;4971740;28;20039;-79
2022/10/21 01:59:32;;;;;;;23.23;13.45;;;;;;;7.71;100.00;100484.56;4959948;28;20476;-77
2022/10/21 02:02:00;;;;;;;26.02;14.48;;;;;;;7.69;100.00;100482.03;4958385;28;20037;-77
2022/10/21 02:04:27;;;;;;;24.13;12.80;;;;;;;7.74;100.00;100478.94;4960538;28;20125;-77
2022/10/21 02:06:53;;;;;;;22.70;13.75;;;;;;;7.67;100.00;100473.38;4953526;28;20062;-79
2022/10/21 02:09:18;;;;;;;24.87;13.70;;;;;;;7.67;100.00;100477.84;4962177;28;20681;-78
2022/10/21 02:11:47;;;;;;;24.97;14.30;;;;;;;7.64;100.00;100464.88;4977299;28;20392;-79
2022/10/21 02:14:22;;;;;;;27.17;14.13;;;;;;;7.61;100.00;100463.38;4962146;28;20022;-77
2022/10/21 02:16:49;;;;;;;25.95;14.07;;;;;;;7.65;100.00;100459.41;4963868;28;20031;-77
2022/10/21 02:19:18;;;;;;;24.38;13.80;;;;;;;7.72;100.00;100455.16;4935116;28;20045;-77
2022/10/21 02:21:46;;;;;;;23.38;13.55;;;;;;;7.67;100.00;100446.81;4960998;28;20113;-78
2022/10/21 02:24:27;;;;;;;22.40;12.32;;;;;;;7.58;100.00;100443.22;4961349;28;20099;-78
2022/10/21 02:26:53;;;;;;;26.77;14.68;;;;;;;7.54;100.00;100425.94;4964409;28;20440;-78
2022/10/21 02:29:23;;;;;;;27.33;16.00;;;;;;;7.64;100.00;100449.78;4978670;28;20038;-77
2022/10/21 02:31:57;;;;;;;27.35;15.13;;;;;;;7.63;100.00;100455.22;4967162;28;20392;-78
2022/10/21 02:34:40;;;;;;;26.08;14.35;;;;;;;7.56;100.00;100429.28;4979240;28;20030;-79
2022/10/21 02:37:30;;;;;;;27.58;15.23;;;;;;;7.63;100.00;100434.78;4980801;28;20149;-77
2022/10/21 02:40:03;;;;;;;27.60;16.92;;;;;;;7.68;100.00;100451.16;4948569;28;20039;-78
2022/10/21 02:42:35;;;;;;;28.90;14.90;;;;;;;7.60;100.00;100451.06;4976920;28;20049;-77
2022/10/21 02:45:01;;;;;;;29.27;14.82;;;;;;;7.55;100.00;100455.97;4972870;28;20141;-76
2022/10/21 02:47:28;;;;;;;29.60;16.25;;;;;;;7.56;100.00;100455.84;4960906;28;20023;-78
2022/10/21 02:49:54;;;;;;;27.88;16.00;;;;;;;7.42;100.00;100437.72;4975142;28;20039;-78
2022/10/21 02:52:19;;;;;;;28.50;17.05;;;;;;;7.48;100.00;100442.47;4978359;28;20022;-78
2022/10/21 02:54:45;;;;;;;29.52;16.67;;;;;;;7.54;100.00;100443.69;4979519;28;20520;-77
2022/10/21 02:57:10;;;;;;;26.47;14.73;;;;;;;7.50;100.00;100429.03;4950247;28;20069;-77
2022/10/21 02:59:35;;;;;;;27.93;14.07;;;;;;;7.48;100.00;100415.91;4950095;28;20037;-77
2022/10/21 03:02:01;;;;;;;33.33;17.63;;;;;;;7.46;100.00;100412.56;4959918;28;20036;-78
2022/10/21 03:04:26;;;;;;;27.23;15.17;;;;;;;7.55;100.00;100422.28;4962044;28;20038;-77
2022/10/21 03:06:52;;;;;;;26.77;15.47;;;;;;;7.60;100.00;100420.00;4949966;28;20050;-77
2022/10/21 03:09:17;;;;;;;27.90;16.13;;;;;;;7.57;100.00;100419.47;4959511;28;20060;-78
2022/10/21 03:11:42;;;;;;;35.43;18.27;;;;;;;7.56;100.00;100426.63;4963477;28;20045;-78
2022/10/21 03:14:08;;;;;;;32.50;16.07;;;;;;;7.57;100.00;100422.13;4978007;28;20042;-77
2022/10/21 03:16:33;;;;;;;26.80;15.63;;;;;;;7.57;100.00;100425.63;4942086;28;20027;-78
2022/10/21 03:18:58;;;;;;;27.83;14.63;;;;;;;7.64;100.00;100427.69;4959814;28;20030;-78
2022/10/21 03:21:24;;;;;;;29.93;16.53;;;;;;;7.75;100.00;100443.38;4959884;28;20340;-78
2022/10/21 03:23:49;;;;;;;29.73;16.97;;;;;;;7.72;100.00;100419.78;4975100;28;20038;-76
2022/10/21 03:26:15;;;;;;;29.37;17.10;;;;;;;7.71;100.00;100410.16;4976391;28;20289;-77
2022/10/21 03:28:40;;;;;;;26.00;15.40;;;;;;;7.75;100.00;100416.81;4977032;28;20030;-77
2022/10/21 03:31:05;;;;;;;33.03;17.43;;;;;;;7.73;100.00;100424.94;4977764;28;20476;-77
2022/10/21 03:33:31;;;;;;;32.23;16.63;;;;;;;7.66;100.00;100407.94;4947705;28;20053;-76
2022/10/21 03:35:56;;;;;;;29.90;16.57;;;;;;;7.71;100.00;100410.97;4976012;28;20038;-78
2022/10/21 03:38:21;;;;;;;29.43;16.37;;;;;;;7.75;100.00;100414.16;4957209;28;20508;-77
2022/10/21 03:40:49;;;;;;;28.47;15.53;;;;;;;7.79;100.00;100405.72;4974847;28;20440;-77
2022/10/21 03:43:14;;;;;;;26.95;15.45;;;;;;;7.69;100.00;100388.19;4960521;28;20153;-77
2022/10/21 03:45:39;;;;;;;31.13;16.90;;;;;;;7.69;100.00;100391.69;4975101;28;20121;-76
2022/10/21 03:48:05;;;;;;;32.50;17.97;;;;;;;7.67;100.00;100393.66;4976793;28;20062;-76
2022/10/21 03:50:30;;;;;;;29.03;15.33;;;;;;;7.80;100.00;100398.59;4958526;28;20042;-77
2022/10/21 03:52:55;;;;;;;33.40;16.83;;;;;;;7.76;100.00;100403.38;4949851;28;20030;-77
2022/10/21 03:55:23;;;;;;;30.50;16.67;;;;;;;7.69;100.00;100390.88;4961709;28;20038;-77
2022/10/21 03:57:49;;;;;;;26.85;15.57;;;;;;;7.84;100.00;100389.31;4962323;28;20042;-79
2022/10/21 04:00:14;;;;;;;35.63;17.67;;;;;;;7.87;100.00;100391.69;4963203;28;20038;-76
2022/10/21 04:02:40;;;;;;;33.30;16.80;;;;;;;7.88;100.00;100390.69;4975742;28;20058;-77
2022/10/21 04:05:06;;;;;;;35.90;19.07;;;;;;;7.89;100.00;100373.75;4956310;28;20031;-76
2022/10/21 04:07:31;;;;;;;28.40;15.95;;;;;;;7.96;100.00;100379.28;4974682;28;20042;-76
2022/10/21 04:09:57;;;;;;;36.63;16.93;;;;;;;7.93;100.00;100380.41;4953224;28;20129;-78
2022/10/21 04:12:22;;;;;;;32.13;17.43;;;;;;;7.96;100.00;100379.28;4976569;28;20074;-78
2022/10/21 04:14:48;;;;;;;33.33;18.05;;;;;;;7.97;100.00;100383.63;4974969;28;20118;-77
2022/10/21 04:17:13;;;;;;;33.03;17.37;;;;;;;7.94;100.00;100366.16;4959659;28;20027;-78
2022/10/21 04:19:38;;;;;;;37.37;17.17;;;;;;;8.02;100.00;100368.88;4974483;28;20601;-77
2022/10/21 04:22:04;;;;;;;27.43;15.53;;;;;;;8.11;100.00;100379.56;4958977;28;20132;-76
2022/10/21 04:24:29;;;;;;;35.97;17.03;;;;;;;8.07;100.00;100364.91;4960570;28;20040;-76
2022/10/21 04:26:54;;;;;;;30.20;17.67;;;;;;;8.01;100.00;100350.44;4945641;28;20034;-77
2022/10/21 04:29:20;;;;;;;27.83;17.87;;;;;;;7.95;100.00;100343.88;4949971;28;20138;-76
2022/10/21 04:31:45;;;;;;;43.60;18.20;;;;;;;8.06;100.00;100350.78;4976107;28;20034;-78
2022/10/21 04:34:10;;;;;;;36.67;16.70;;;;;;;8.09;100.00;100344.31;4949136;28;20081;-78
2022/10/21 04:36:36;;;;;;;39.50;17.97;;;;;;;8.07;100.00;100346.28;4946208;28;20038;-77
2022/10/21 04:39:01;;;;;;;34.80;18.37;;;;;;;8.07;100.00;100340.97;4959192;28;20484;-77
2022/10/21 04:41:27;;;;;;;32.30;18.30;;;;;;;8.06;100.00;100341.97;4958416;28;20038;-78
2022/10/21 04:43:52;;;;;;;34.13;17.07;;;;;;;8.11;100.00;100332.53;4962768;28;20023;-77
2022/10/21 04:46:19;;;;;;;29.23;17.37;;;;;;;8.12;100.00;100333.38;4977064;28;20045;-79
2022/10/21 04:48:45;;;;;;;28.90;17.52;;;;;;;8.13;100.00;100333.22;4974697;28;20043;-78
2022/10/21 04:51:10;;;;;;;33.80;18.05;;;;;;;8.13;100.00;100319.91;4961088;28;20033;-78
2022/10/21 04:53:36;;;;;;;35.80;19.17;;;;;;;7.97;100.00;100315.34;4961878;28;20235;-79
2022/10/21 04:56:01;;;;;;;37.37;20.60;;;;;;;7.95;100.00;100325.28;4960833;28;20045;-79
2022/10/21 04:58:27;;;;;;;37.23;18.57;;;;;;;7.94;100.00;100317.47;4977644;28;20038;-78
2022/10/21 05:00:52;;;;;;;33.30;18.60;;;;;;;7.93;100.00;100313.97;4948949;28;20034;-79
2022/10/21 05:03:19;;;;;;;43.27;19.70;;;;;;;7.94;100.00;100318.31;4979240;28;20026;-79
2022/10/21 05:05:47;;;;;;;36.42;19.33;;;;;;;7.94;100.00;100328.94;4964269;28;20481;-76
2022/10/21 05:08:12;;;;;;;31.17;18.27;;;;;;;7.87;100.00;100335.88;4962365;28;20034;-78
2022/10/21 05:10:38;;;;;;;33.33;19.17;;;;;;;7.86;100.00;100323.56;4978672;28;20085;-79
2022/10/21 05:13:04;;;;;;;37.63;18.50;;;;;;;7.83;100.00;100319.38;4960735;28;20034;-78
2022/10/21 05:15:30;;;;;;;36.92;20.35;;;;;;;7.84;100.00;100309.59;4957818;28;20092;-76
2022/10/21 05:17:55;;;;;;;33.50;18.80;;;;;;;7.84;100.00;100314.91;4956023;28;20026;-76
2022/10/21 05:20:20;;;;;;;38.40;19.67;;;;;;;7.76;100.00;100306.88;4975765;28;20419;-78
2022/10/21 05:22:48;;;;;;;38.30;19.30;;;;;;;7.79;100.00;100317.19;4977782;28;20436;-78
2022/10/21 05:25:13;;;;;;;36.58;19.23;;;;;;;7.89;100.00;100314.44;4975464;28;20030;-76
2022/10/21 05:27:39;;;;;;;45.23;20.50;;;;;;;7.84;100.00;100317.56;4946135;28;20038;-76
2022/10/21 05:30:05;;;;;;;37.53;19.23;;;;;;;7.81;100.00;100305.41;4959200;28;20284;-76
2022/10/21 05:32:30;;;;;;;37.67;18.48;;;;;;;7.83;100.00;100314.06;4977454;28;20372;-78
2022/10/21 05:34:55;;;;;;;41.77;19.33;;;;;;;7.82;100.00;100307.09;4974559;28;20039;-77
2022/10/21 05:37:21;;;;;;;37.97;21.20;;;;;;;7.72;100.00;100314.31;4962271;28;20188;-79
2022/10/21 05:39:46;;;;;;;37.90;20.13;;;;;;;7.72;100.00;100316.97;4977847;28;20471;-78
2022/10/21 05:42:11;;;;;;;39.93;20.93;;;;;;;7.71;100.00;100320.63;4951147;28;20483;-77
2022/10/21 05:44:37;;;;;;;37.93;18.40;;;;;;;7.74;100.00;100312.34;4964758;28;20416;-78
2022/10/21 05:47:03;;;;;;;45.07;21.27;;;;;;;7.79;100.00;100317.19;4960724;28;20034;-78
2022/10/21 05:49:28;;;;;;;40.40;20.83;;;;;;;7.81;100.00;100309.91;4978187;28;20045;-76
2022/10/21 05:51:53;;;;;;;42.50;23.27;;;;;;;7.76;100.00;100314.84;4949706;28;20026;-77
2022/10/21 05:54:19;;;;;;;43.17;22.00;;;;;;;7.75;100.00;100315.81;4979903;28;20039;-76
2022/10/21 05:56:44;;;;;;;44.07;22.93;;;;;;;7.72;100.00;100318.78;4953978;28;20035;-76
2022/10/21 05:59:10;;;;;;;43.57;21.20;;;;;;;7.78;100.00;100312.88;4980608;28;20462;-77
2022/10/21 06:01:36;;;;;;;44.30;23.05;;;;;;;7.82;100.00;100311.59;4977270;28;20118;-78
2022/10/21 06:04:01;;;;;;;35.63;19.95;;;;;;;7.88;100.00;100305.63;4950450;28;20027;-78
2022/10/21 06:06:26;;;;;;;39.40;22.70;;;;;;;7.83;100.00;100306.09;4977975;28;20042;-78
2022/10/21 06:08:52;;;;;;;43.47;21.40;;;;;;;7.74;100.00;100307.03;4977141;28;20027;-78
2022/10/21 06:11:19;;;;;;;34.30;20.10;;;;;;;7.85;100.00;100310.44;4979834;28;20391;-77
2022/10/21 06:13:45;;;;;;;48.70;22.45;;;;;;;7.93;100.00;100313.13;4976146;28;20468;-75
2022/10/21 06:16:12;;;;;;;52.38;23.83;;;;;;;7.94;100.00;100309.50;4979681;28;20022;-78
2022/10/21 06:18:38;;;;;;;40.20;21.92;;;;;;;8.01;100.00;100314.03;4962115;28;20035;-77
2022/10/21 06:21:04;;;;;;;;;;;;;;;7.97;100.00;100323.31;4979728;28;20582;-79
2022/10/21 06:23:30;;;;;;;43.70;22.98;;;;;;;7.92;100.00;100317.63;4960474;28;20025;-76
2022/10/21 06:26:00;;;;;;;42.00;22.10;;;;;;;8.01;100.00;100322.00;4977305;28;20075;-77
2022/10/21 06:28:27;;;;;;;42.85;21.10;;;;;;;8.03;100.00;100320.03;4960865;28;20030;-78
2022/10/21 06:30:53;;;;;;;43.75;20.73;;;;;;;8.10;100.00;100319.38;4949064;28;20089;-77
2022/10/21 06:33:19;;;;;;;39.63;20.50;;;;;;;8.10;100.00;100316.72;4962363;28;20591;-78
2022/10/21 06:35:45;;;;;;;36.92;19.98;;;;;;;8.17;100.00;100325.75;4975598;28;20093;-75
2022/10/21 06:38:10;;;;;;;49.30;21.08;;;;;;;8.22;100.00;100324.31;4962734;28;20046;-76
2022/10/21 06:40:35;;;;;;;41.53;22.03;;;;;;;8.19;100.00;100311.31;4957262;28;20101;-77
2022/10/21 06:43:01;;;;;;;36.37;19.17;;;;;;;8.28;100.00;100322.81;4960820;28;20380;-77
2022/10/21 06:45:26;;;;;;;36.50;20.67;;;;;;;8.30;100.00;100320.84;4978151;28;20096;-77
2022/10/21 06:47:52;;;;;;;40.07;20.70;;;;;;;8.05;100.00;100301.25;4948672;28;20035;-77
2022/10/21 06:50:17;;;;;;;41.50;20.27;;;;;;;8.24;100.00;100314.34;4939390;28;20039;-78
2022/10/21 06:52:43;;;;;;;37.92;19.08;;;;;;;8.21;100.00;100316.47;4961527;28;20058;-79
2022/10/21 06:55:09;;;;;;;36.22;20.85;;;;;;;8.22;100.00;100324.31;4961978;28;20045;-78
2022/10/21 06:57:34;;;;;;;37.38;20.45;;;;;;;8.18;100.00;100322.13;4978216;28;20065;-76
2022/10/21 06:59:59;;;;;;;37.63;20.07;;;;;;;8.14;100.00;100318.91;4961686;28;20082;-76
2022/10/21 07:02:25;;;;;;;42.83;20.67;;;;;;;8.06;100.00;100313.56;4979059;28;20498;-79
2022/10/21 07:04:51;;;;;;;40.10;21.00;;;;;;;8.14;100.00;100326.91;4977706;28;20471;-77
2022/10/21 07:07:18;;;;;;;38.58;21.25;;;;;;;8.19;100.00;100319.31;4958278;28;20039;-79
2022/10/21 07:09:43;;;;;;;;;;;;;;;8.18;100.00;100319.44;4979825;28;20039;-78
2022/10/21 07:12:08;;;;;;;41.38;20.08;;;;;;;8.12;100.00;100301.47;4981169;28;19928;-79
2022/10/21 07:14:34;;;;;;;44.90;20.60;;;;;;;8.32;100.00;100324.19;4978562;28;20049;-75
2022/10/21 07:16:59;;;;;;;39.37;19.37;;;;;;;8.25;100.00;100307.19;4978678;28;20050;-76
2022/10/21 07:19:24;;;;;;;41.53;20.60;;;;;;;8.29;100.00;100313.00;4979608;28;20050;-77
2022/10/21 07:21:50;;;;;;;40.77;19.17;;;;;;;8.37;100.00;100315.72;4948565;28;20226;-78
2022/10/21 07:24:16;;;;;;;37.38;19.98;;;;;;;8.31;100.00;100322.53;4961626;28;20035;-78
2022/10/21 07:26:41;;;;;;;39.08;20.52;;;;;;;8.22;100.00;100320.81;4976113;28;20033;-78
2022/10/21 07:29:07;;;;;;;36.20;19.10;;;;;;;8.28;100.00;100306.03;4961256;28;20459;-79
2022/10/21 07:31:35;;;;;;;44.30;22.73;;;;;;;8.27;100.00;100305.22;4959733;28;20031;-79
2022/10/21 07:34:02;;;;;;;37.42;20.45;;;;;;;8.33;100.00;100315.19;4959995;28;20046;-78
2022/10/21 07:36:31;;;;;;;36.78;20.75;;;;;;;8.45;100.00;100332.59;4976710;28;20117;-76
2022/10/21 07:39:01;;;;;;;40.05;20.20;;;;;;;8.58;100.00;100341.97;4977007;28;20040;-77
2022/10/21 07:41:36;;;;;;;39.35;20.70;;;;;;;8.51;100.00;100335.63;4943757;28;20172;-79
2022/10/21 07:44:02;;;;;;;41.33;20.83;;;;;;;8.53;100.00;100344.28;4973497;28;20038;-79
2022/10/21 07:46:28;;;;;;;39.17;20.30;;;;;;;8.43;100.00;100331.94;4959111;28;20038;-76
2022/10/21 07:48:53;;;;;;;39.63;21.17;;;;;;;8.56;100.00;100331.47;4963763;28;20039;-78
2022/10/21 07:51:22;;;;;;;42.70;22.60;;;;;;;8.58;100.00;100326.81;4978138;28;20030;-76
2022/10/21 07:53:49;;;;;;;37.65;20.45;;;;;;;8.97;100.00;100339.63;4975032;28;20035;-78
2022/10/21 07:56:21;;;;;;;37.28;18.65;;;;;;;9.09;100.00;100326.84;4975014;28;20046;-77
2022/10/21 07:58:46;;;;;;;32.15;18.15;;;;;;;9.32;100.00;100320.88;4947357;28;20035;-78
2022/10/21 08:01:14;;;;;;;32.20;18.53;;;;;;;9.14;100.00;100300.53;4960242;28;20153;-78
2022/10/21 08:03:39;;;;;;;40.45;19.67;;;;;;;9.06;100.00;100288.06;4974930;28;20034;-75
2022/10/21 08:06:06;;;;;;;31.60;17.40;;;;;;;9.17;100.00;100278.91;4977044;28;20091;-78
2022/10/21 08:08:32;;;;;;;36.30;19.33;;;;;;;9.19;100.00;100284.91;4975888;28;20097;-76
2022/10/21 08:10:57;;;;;;;31.85;18.10;;;;;;;9.18;100.00;100288.56;4976003;28;20035;-79
2022/10/21 08:13:23;;;;;;;33.40;18.20;;;;;;;9.15;100.00;100291.53;4974963;28;20384;-77
2022/10/21 08:15:52;;;;;;;33.10;19.15;;;;;;;9.26;100.00;100291.22;4975368;28;20039;-77
2022/10/21 08:18:18;;;;;;;33.42;20.30;;;;;;;9.46;100.00;100291.75;4936710;28;20058;-78
2022/10/21 08:20:45;;;;;;;32.33;18.05;;;;;;;9.79;100.00;100290.91;4945433;28;20042;-76
2022/10/21 08:23:12;;;;;;;29.73;18.40;;;;;;;9.82;100.00;100274.56;4960243;28;20034;-78
2022/10/21 08:25:38;;;;;;;30.98;18.17;;;;;;;9.96;100.00;100276.53;4943759;28;20554;-77
2022/10/21 08:28:05;;;;;;;45.37;24.10;;;;;;;9.96;100.00;100276.53;4976439;28;20615;-79
2022/10/21 08:30:31;;;;;;;39.17;19.15;;;;;;;9.93;100.00;100260.91;4975437;28;20293;-77
2022/10/21 08:33:00;;;;;;;30.38;19.08;;;;;;;9.74;100.00;100256.75;4971662;28;20026;-77
2022/10/21 08:35:26;;;;;;;33.08;18.13;;;;;;;9.95;100.00;100256.22;4958373;28;20106;-78
2022/10/21 08:37:52;;;;;;;32.60;18.38;;;;;;;9.85;100.00;100243.06;4962170;28;20123;-78
2022/10/21 08:40:19;;;;;;;31.08;18.38;;;;;;;9.87;100.00;100248.22;4956985;28;20146;-78
2022/10/21 08:42:45;;;;;;;32.00;19.13;;;;;;;10.10;100.00;100249.16;4974210;28;20125;-76
2022/10/21 08:45:32;;;;;;;29.45;17.38;;;;;;;10.23;100.00;100271.78;4959275;28;20014;-77
2022/10/21 08:48:04;;;;;;;27.40;17.58;;;;;;;10.05;100.00;100264.03;4959946;28;20496;-77
2022/10/21 08:50:37;;;;;;;37.33;19.17;;;;;;;10.01;100.00;100249.38;4954947;28;20515;-78
2022/10/21 08:53:14;;;;;;;32.67;17.10;;;;;;;10.19;100.00;100266.00;4973562;28;20042;-77
2022/10/21 08:55:41;;;;;;;29.90;17.70;;;;;;;10.18;100.00;100266.97;4974048;28;20451;-77
2022/10/21 08:58:19;;;;;;;29.60;16.95;;;;;;;10.23;100.00;100288.66;4958523;28;20061;-77
2022/10/21 09:00:54;;;;;;;29.48;17.35;;;;;;;10.14;100.00;100290.50;4972040;28;20050;-76
2022/10/21 09:03:40;;;;;;;30.52;17.73;;;;;;;10.17;100.00;100302.66;4974896;28;20104;-76
2022/10/21 09:06:20;;;;;;;34.63;17.30;;;;;;;10.28;100.00;100307.69;4974621;28;20035;-77
2022/10/21 09:08:48;;;;;;;33.65;20.10;;;;;;;10.20;100.00;100299.66;4975729;28;20077;-78
2022/10/21 09:11:40;;;;;;;31.63;19.00;;;;;;;10.00;100.00;100299.22;4979975;28;20038;-77
2022/10/21 09:14:34;;;;;;;29.75;18.52;;;;;;;9.96;100.00;100308.53;4965778;28;20043;-78
2022/10/21 09:17:20;;;;;;;29.45;17.65;;;;;;;9.94;100.00;100310.53;4974401;28;20047;-76
2022/10/21 09:19:57;;;;;;;34.80;19.35;;;;;;;9.96;100.00;100311.22;4963178;28;20031;-77
2022/10/21 09:23:00;;;;;;;31.77;18.25;;;;;;;10.12;100.00;100321.03;4979076;28;20041;-78
2022/10/21 09:25:33;;;;;;;36.53;19.67;;;;;;;10.05;100.00;100312.03;4977336;28;20044;-76
2022/10/21 09:28:07;;;;;;;32.80;18.13;;;;;;;10.21;100.00;100311.16;4975082;28;20514;-75
2022/10/21 09:30:33;;;;;;;33.75;18.17;;;;;;;10.04;100.00;100305.84;4976938;28;20495;-77
2022/10/21 09:33:00;;;;;;;34.17;20.35;;;;;;;10.08;100.00;100299.19;4959824;28;20033;-76
2022/10/21 09:35:37;;;;;;;33.38;20.60;;;;;;;10.10;100.00;100299.03;4957013;28;20078;-77
2022/10/21 09:38:16;;;;;;;31.90;18.65;;;;;;;10.04;100.00;100295.19;4975965;28;20034;-77
2022/10/21 09:40:43;;;;;;;38.47;19.67;;;;;;;10.19;100.00;100300.66;4945588;28;20039;-78
2022/10/21 09:43:16;;;;;;;34.72;19.55;;;;;;;10.44;100.00;100298.78;4978549;28;20125;-77
2022/10/21 09:45:44;;;;;;;33.75;19.92;;;;;;;10.51;100.00;100294.44;4973683;28;20117;-78
2022/10/21 09:48:16;;;;;;;35.00;19.50;;;;;;;10.47;100.00;100298.44;4977609;28;20027;-76
2022/10/21 09:50:42;;;;;;;32.83;18.63;;;;;;;10.66;100.00;100299.88;4973082;28;20034;-77
2022/10/21 09:53:16;;;;;;;29.50;18.20;;;;;;;10.98;100.00;100293.53;4977385;28;20472;-77
2022/10/21 09:55:45;;;;;;;32.33;16.95;;;;;;;11.29;100.00;100299.84;4933496;28;20042;-77
2022/10/21 09:58:49;;;;;;;26.25;17.13;;;;;;;11.31;100.00;100284.47;4977829;28;20029;-76
2022/10/21 10:01:18;;;;;;;31.02;17.65;;;;;;;11.34;100.00;100270.72;4976659;28;20425;-77
2022/10/21 10:03:47;;;;;;;28.58;16.10;;;;;;;11.34;100.00;100263.53;4946321;28;20834;-76
2022/10/21 10:06:28;;;;;;;23.38;16.10;;;;;;;11.38;100.00;100264.84;4948739;28;20041;-76
2022/10/21 10:09:11;;;;;;;30.90;17.75;;;;;;;11.42;100.00;100259.97;4976096;28;20030;-76
2022/10/21 10:11:48;;;;;;;27.90;16.65;;;;;;;11.67;100.00;100265.94;4971971;28;20475;-76
2022/10/21 10:14:39;;;;;;;27.30;16.45;;;;;;;12.13;100.00;100246.28;4959745;28;20130;-76
2022/10/21 10:17:32;;;;;;;25.88;15.77;;;;;;;12.52;100.00;100250.47;4956494;28;20631;-75
2022/10/21 10:20:04;;;;;;;26.48;14.75;;;;;;;13.45;100.00;100255.00;4955253;28;20373;-75
2022/10/21 10:22:41;;;;;;;23.08;14.80;;;;;;;13.24;100.00;100209.41;4974951;28;20508;-75
2022/10/21 10:25:13;;;;;;;19.85;13.43;;;;;;;13.28;100.00;100192.78;4974667;28;20038;-76
2022/10/21 10:27:51;;;;;;;28.83;15.20;;;;;;;13.61;100.00;100184.16;4972120;28;20038;-75
2022/10/21 10:30:19;;;;;;;22.15;13.85;;;;;;;14.28;100.00;100176.44;4974101;28;20116;-75
2022/10/21 10:32:45;;;;;;;22.75;14.00;;;;;;;13.88;100.00;100130.66;4972934;28;20026;-75
2022/10/21 10:35:25;;;;;;;22.17;13.25;;;;;;;13.64;100.00;100108.66;4976386;28;20030;-74
2022/10/21 10:37:52;;;;;;;24.10;15.43;;;;;;;13.24;100.00;100105.69;4973305;28;20519;-75
2022/10/21 10:40:32;;;;;;;23.60;16.10;;;;;;;13.29;100.00;100159.56;4958694;28;20135;-75
2022/10/21 10:43:17;;;;;;;23.30;14.82;;;;;;;12.76;100.00;100172.50;4971019;28;20479;-75
2022/10/21 10:45:50;;;;;;;20.88;14.38;;;;;;;12.99;100.00;100201.75;4959490;28;20041;-75
2022/10/21 10:48:25;;;;;;;21.77;13.77;;;;;;;13.75;100.00;100232.53;4959536;28;20043;-75
2022/10/21 10:50:50;;;;;;;23.92;13.40;;;;;;;14.25;100.00;100207.22;4974598;28;20035;-75
2022/10/21 10:53:15;;;;;;;27.33;15.00;;;;;;;13.54;100.00;100144.91;4942855;28;20022;-74
2022/10/21 10:55:44;;;;;;;25.73;14.10;;;;;;;12.87;100.00;100139.00;4973263;28;20404;-75
2022/10/21 10:58:10;;;;;;;29.02;16.35;;;;;;;12.66;100.00;100196.06;4958807;28;20047;-74
2022/10/21 11:00:41;;;;;;;23.88;16.73;;;;;;;12.58;100.00;100247.88;4976004;28;20137;-75
2022/10/21 11:03:12;;;;;;;22.63;15.05;;;;;;;12.75;100.00;100279.81;4975702;28;20034;-75
2022/10/21 11:05:47;;;;;;;33.15;17.65;;;;;;;13.18;100.00;100291.44;4970743;28;20045;-75
2022/10/21 11:08:38;;;;;;;25.92;16.45;;;;;;;12.89;100.00;100278.94;4958518;28;20031;-75
2022/10/21 11:11:20;;;;;;;22.92;15.50;;;;;;;12.63;100.00;100272.25;4951422;28;20265;-75
2022/10/21 11:13:45;;;;;;;23.75;16.13;;;;;;;12.74;100.00;100281.66;4959643;28;20481;-74
2022/10/21 11:16:39;;;;;;;30.50;17.20;;;;;;;12.87;100.00;100305.91;4975507;28;20014;-75
2022/10/21 11:19:17;;;;;;;24.83;14.85;;;;;;;13.12;100.00;100320.84;4934536;28;20365;-75